• Join FlightAware (Why Join?)
  • Login
  • US Flag 
06:03AM EDT


 

Airport Tracker/Info


-or-


 

Live Flight TrackerFlight Track Log ✈ BJS542 ✈ 29-Apr-2013 ✈ MYNN / NAS - KMIA

Flight Track Log - Related Links

Times and Time Zones

All times are in EDT time to prevent confusion due to time zone crossing. See the BJS542 flight status page for this flight to view local times or setup timezone preferences in your user account.

Time Position Orientation Groundspeed Altitude Reporting Facility
EDT Latitude Longitude Course Direction KTS MPH feet Rate Location/Type
01:36PM 24.9631 -77.4481 264° West 215 247 6,000  Level Miami Center
01:37PM 24.9775 -77.5167 283° West 134 154 8,900 3,300 Climbing Miami Center
01:38PM 25.0125 -77.6064 293° West 202 232 12,600 3,600 Climbing Miami Center
01:39PM 25.0119 -77.7164 270° West 312 359 16,200 3,300 Climbing Miami Center
01:40PM 25.0069 -77.8333 267° West 344 396 19,200 1,860 Climbing Miami Center
01:41PM 25.0008 -77.9081 264° West  Level FlightAware Approximate
01:41PM 25.0019 -77.9550 267° West 383 441 20,000  Level Miami Center
01:42PM 24.9925 -77.9996 264° West  Level FlightAware Approximate
01:42PM 24.9947 -78.0786 266° West 404 465 20,000  Level Miami Center
01:43PM 24.9917 -78.1956 268° West 398 458 20,000  Level Miami Center
01:44PM 24.9822 -78.3147 265° West 398 458 20,000  Level Miami Center
01:45PM 24.9539 -78.4311 255° West 398 458 20,000  Level Miami Center
01:46PM 24.9400 -78.5433 262° West 391 450 20,000  Level Miami Center
01:47PM 24.9283 -78.6464 263° West 366 421 20,000  Level Miami Center
01:48PM 24.9253 -78.7447 268° West 340 391 20,000  Level Miami Center
01:49PM 24.9594 -78.8347 293° West 325 374 20,000  Level Miami Center
01:50PM 25.0064 -78.9272 299° West 325 374 20,000  Level Miami Center
01:51PM 25.0569 -79.0289 299° West 331 381 20,000  Level Miami Center
01:52PM 25.1017 -79.1192 299° West 342 394 20,000  Level Miami Center
01:53PM 25.1483 -79.2119 299° West 342 394 20,000 -300 Level Miami Center
01:54PM 25.1906 -79.3069 296° West 347 399 19,500 -1,140 Descending Miami Center
01:55PM 25.2350 -79.3972 299° West 341 392 17,800 -1,620 Descending Miami Center
01:56PM 25.2411 -79.4181 288° West 330 380 17,500 -1,440 Descending Miami Center
01:56PM 25.2711 -79.4853 296° West 322 371 16,400 -1,560 Descending Miami Center
01:57PM 25.3156 -79.5736 299° West 322 371 14,800 -1,560 Descending Miami Center
01:58PM 25.3517 -79.6528 297° West 316 364 13,400 -1,500 Descending Miami Center
01:59PM 25.4000 -79.7411 301° West 321 369 11,800 -1,440 Descending Miami Center
02:00PM 25.4508 -79.8206 305° West 316 364 10,400 -900 Descending Miami Center
02:01PM 25.4994 -79.8908 307° West 310 357 10,000 -240 Descending Miami Center
02:02PM 25.5481 -79.9658 306° West 305 351 10,000 -120 Level Miami Center
02:03PM 25.5967 -80.0361 307° West 299 344 9,800 -660 Descending Miami Center
02:04PM 25.6411 -80.1042 306° West 282 325 8,700 -900 Descending Miami Center
02:05PM 25.6967 -80.1469 325° Northwest 258 297 8,000 -600 Descending Miami Center
02:06PM 25.7089 -80.1589 319° Northwest 248 285 8,000  Level Miami Center
02:07PM 25.7747 -80.2092 325° Northwest 253 291 8,000 -180 Level Miami Center
02:08PM 25.8322 -80.2525 326° Northwest 252 290 7,700 -840 Descending Miami Center
02:09PM 25.8747 -80.2997 315° West 232 267 6,400 -1,680 Descending Miami Center
02:10PM 25.9006 -80.3653 294° West 242 278 4,500 -1,440 Descending Miami Center
02:11PM 25.8925 -80.4364 263° West 220 253 3,500 -1,080 Descending Miami Center
02:12PM 25.8422 -80.4442 188° South 188 216 2,400 -780 Descending Miami Center
02:13PM 25.8181 -80.4019 122° Southeast 151 174 2,000 -600 Descending Miami Center
02:14PM 25.8025 -80.3531 109° East 139 160 1,200 -840 Descending Miami Center
02:15PM 25.8014 -80.3183 92° East 118 136 400 -900 Descending Miami Center
02:17PM 25.7954 -80.2901 77° East  Level Estimated